Time;durP1;ratioP1;P1;durP2;ratioP2;P2;SDS_P1;SDS_P2;PMS_P1;PMS_P2;Temp;Humidity;BMP_temperature;BMP_pressure;BME280_temperature;BME280_humidity;BME280_pressure;Samples;Min_cycle;Max_cycle;Signal;HPM_P1;HPM_P2
2022/05/26 00:01:48;;;;;;;18.48;6.38;;;;;;;11.14;58.91;101301.50;4953958;28;20085;-78
2022/05/26 00:04:30;;;;;;;13.25;6.18;;;;;;;10.98;59.25;101302.03;4943785;28;20055;-80
2022/05/26 00:07:46;;;;;;;12.55;5.78;;;;;;;11.24;58.27;101314.19;4931138;28;20055;-77
2022/05/26 00:10:12;;;;;;;13.02;6.10;;;;;;;11.11;58.63;101312.06;4962114;28;20057;-79
2022/05/26 00:12:38;;;;;;;19.60;6.53;;;;;;;11.31;58.09;101306.97;4935655;28;20047;-78
2022/05/26 00:18:52;;;;;;;15.93;7.03;;;;;;;11.35;58.37;101305.97;4957824;28;20054;-78
2022/05/26 00:21:21;;;;;;;10.77;7.95;;;;;;;11.27;58.01;101308.00;4967538;28;20149;-79
2022/05/26 00:24:28;;;;;;;11.05;6.35;;;;;;;11.35;58.21;101298.13;4949151;28;20045;-77
2022/05/26 00:26:58;;;;;;;9.52;5.60;;;;;;;11.44;57.61;101300.38;4915197;28;20050;-77
2022/05/26 00:29:45;;;;;;;15.60;6.03;;;;;;;11.09;58.68;101300.81;4971245;28;20050;-79
2022/05/26 00:36:51;;;;;;;11.95;6.40;;;;;;;11.53;57.42;101304.44;4962868;28;20118;-79
2022/05/26 01:17:24;;;;;;;20.65;6.97;;;;;;;11.09;58.87;101313.88;4905518;28;20047;-78
2022/05/26 01:20:15;;;;;;;12.95;6.80;;;;;;;11.21;58.94;101318.66;4971198;28;20079;-76
2022/05/26 01:23:57;;;;;;;13.27;7.17;;;;;;;10.88;59.79;101311.09;4970448;28;20051;-80
2022/05/26 01:57:43;;;;;;;15.13;7.00;;;;;;;11.23;58.74;101358.72;4871789;29;20071;-77
2022/05/26 02:00:14;;;;;;;15.65;7.13;;;;;;;11.08;58.75;101360.09;4960483;28;20073;-79
2022/05/26 02:02:56;;;;;;;19.95;6.50;;;;;;;11.20;58.48;101358.84;4960383;28;20062;-80
2022/05/26 02:05:31;;;;;;;15.95;6.00;;;;;;;11.19;58.79;101363.19;4949896;28;20035;-78
2022/05/26 02:08:19;;;;;;;15.32;5.68;;;;;;;11.00;59.13;101373.44;4933267;28;20077;-81
2022/05/26 02:10:50;;;;;;;18.65;6.28;;;;;;;10.80;59.37;101368.00;4946540;28;20062;-80
2022/05/26 02:17:41;;;;;;;15.38;5.78;;;;;;;11.05;58.90;101366.28;4933083;29;20114;-79
2022/05/26 02:20:26;;;;;;;14.48;4.68;;;;;;;11.00;58.72;101368.22;4926564;29;20023;-79
2022/05/26 02:28:12;;;;;;;18.58;4.07;;;;;;;11.41;56.86;101379.00;4964909;28;20069;-79
2022/05/26 03:30:54;;;;;;;9.65;1.30;;;;;;;10.99;55.78;101420.56;4964538;28;20042;-78
2022/05/26 03:53:03;;;;;;;10.23;2.67;;;;;;;10.82;55.45;101422.00;4967090;28;20054;-78
2022/05/26 03:55:29;;;;;;;13.73;1.42;;;;;;;10.78;55.11;101424.72;4984269;28;20027;-78
2022/05/26 04:13:30;;;;;;;5.68;0.40;;;;;;;11.60;52.33;101449.06;4913284;28;20038;-76
2022/05/26 04:16:59;;;;;;;8.77;0.88;;;;;;;11.35;52.47;101441.16;4930476;29;20647;-78
2022/05/26 04:19:26;;;;;;;8.48;1.35;;;;;;;11.42;51.73;101448.78;4952778;28;20297;-79
2022/05/26 04:33:33;;;;;;;7.50;0.75;;;;;;;11.19;51.46;101474.84;4936035;29;20103;-81
2022/05/26 04:36:06;;;;;;;10.23;1.33;;;;;;;11.34;50.82;101474.34;4893904;29;20513;-79
2022/05/26 04:50:40;;;;;;;5.13;0.38;;;;;;;12.05;47.37;101498.09;4936322;29;20050;-79
2022/05/26 04:53:09;;;;;;;4.43;0.45;;;;;;;11.96;47.61;101501.91;4917911;29;20067;-78
2022/05/26 05:19:19;;;;;;;3.65;0.20;;;;;;;17.55;35.00;101510.66;4868381;29;20079;-77
2022/05/26 05:22:51;;;;;;;;;;;;;;;17.49;34.61;101522.44;4843971;29;20496;-79
2022/05/26 05:25:18;;;;;;;6.57;0.45;;;;;;;17.53;32.99;101528.41;4839439;29;19977;-79
2022/05/26 05:53:42;;;;;;;3.25;0.50;;;;;;;13.58;41.45;101571.81;4942804;28;20509;-77
2022/05/26 05:56:09;;;;;;;9.90;1.48;;;;;;;13.13;42.77;101565.69;4976362;28;20039;-78
2022/05/26 05:58:55;;;;;;;3.47;0.60;;;;;;;14.00;40.22;101574.38;4975334;28;20212;-77
2022/05/26 06:24:41;;;;;;;5.22;0.25;;;;;;;15.35;35.49;101588.44;4905214;29;20067;-79
2022/05/26 06:38:18;;;;;;;5.57;0.35;;;;;;;14.28;35.66;101613.47;4852569;29;20063;-81
2022/05/26 06:45:22;;;;;;;4.93;0.35;;;;;;;14.65;36.45;101622.38;4917471;29;20054;-77
2022/05/26 06:51:29;;;;;;;4.75;0.52;;;;;;;13.99;37.98;101624.41;4909335;29;20032;-77
2022/05/26 06:54:03;;;;;;;2.08;0.10;;;;;;;14.01;37.57;101625.16;4919101;28;20046;-76
2022/05/26 07:04:29;;;;;;;6.22;0.10;;;;;;;15.84;33.76;101617.59;4941130;28;20181;-76
2022/05/26 07:06:57;;;;;;;2.70;0.45;;;;;;;16.97;32.88;101618.69;4935651;28;20186;-77
2022/05/26 07:09:30;;;;;;;3.08;0.20;;;;;;;19.00;29.29;101624.38;4962937;28;20042;-77
2022/05/26 07:11:58;;;;;;;4.03;0.30;;;;;;;20.78;26.49;101628.28;4962768;28;20039;-77
2022/05/26 07:14:24;;;;;;;3.67;0.40;;;;;;;19.58;28.28;101630.34;4959289;28;20041;-78
2022/05/26 07:16:51;;;;;;;5.05;0.38;;;;;;;17.90;30.25;101632.81;4982510;28;20031;-76
2022/05/26 07:19:19;;;;;;;9.40;0.30;;;;;;;17.62;31.27;101636.22;4964221;28;20110;-76
2022/05/26 07:21:49;;;;;;;3.22;0.20;;;;;;;18.16;31.37;101643.63;4964552;28;20146;-80
2022/05/26 07:24:18;;;;;;;4.72;0.47;;;;;;;16.99;31.19;101629.19;4971622;28;20054;-79
2022/05/26 07:26:44;;;;;;;5.20;0.52;;;;;;;16.58;32.91;101643.66;4945966;28;20062;-77
2022/05/26 07:29:49;;;;;;;1.55;0.20;;;;;;;16.08;32.42;101651.56;4963737;28;20069;-76
2022/05/26 07:33:08;;;;;;;1.77;0.10;;;;;;;17.80;30.39;101656.28;4981046;28;20101;-78
2022/05/26 07:46:57;;;;;;;3.85;0.20;;;;;;;18.36;29.46;101645.09;4829632;29;20049;-77
2022/05/26 07:54:14;;;;;;;1.75;0.10;;;;;;;15.28;34.33;101666.00;4825473;29;20121;-75
2022/05/26 07:56:40;;;;;;;2.30;0.30;;;;;;;14.62;34.91;101672.50;4826383;29;20136;-76
2022/05/26 07:59:07;;;;;;;3.35;0.20;;;;;;;14.13;36.63;101670.19;4882629;28;20586;-78
2022/05/26 08:01:33;;;;;;;3.15;0.20;;;;;;;15.88;34.11;101671.84;4971203;28;20046;-79
2022/05/26 08:03:59;;;;;;;4.97;0.20;;;;;;;19.74;29.34;101668.16;4967420;28;20050;-80
2022/05/26 08:06:25;;;;;;;1.25;0.10;;;;;;;18.23;29.42;101671.47;4970939;28;20809;-77
2022/05/26 08:08:51;;;;;;;1.35;0.30;;;;;;;18.05;29.60;101660.13;4940134;28;20046;-79
2022/05/26 08:11:17;;;;;;;2.17;0.10;;;;;;;21.12;25.87;101668.38;4952241;28;20405;-79
2022/05/26 08:13:42;;;;;;;4.47;0.30;;;;;;;20.37;25.96;101674.53;4961077;28;20083;-77
2022/05/26 08:16:08;;;;;;;1.27;0.20;;;;;;;21.22;25.31;101679.19;4952281;28;20066;-81
2022/05/26 08:18:35;;;;;;;4.85;0.17;;;;;;;21.44;25.05;101689.09;4957866;28;20058;-85
2022/05/26 08:21:10;;;;;;;3.67;0.10;;;;;;;22.55;24.37;101693.09;4959875;28;20621;-79
2022/05/26 08:23:37;;;;;;;5.35;0.38;;;;;;;21.41;25.25;101684.88;4956601;28;20042;-81
2022/05/26 08:26:03;;;;;;;7.20;0.80;;;;;;;20.60;25.66;101682.72;4954686;28;20544;-80
2022/05/26 08:28:29;;;;;;;1.73;0.10;;;;;;;20.81;26.50;101681.19;4972488;28;20047;-77
2022/05/26 08:30:57;;;;;;;2.17;0.25;;;;;;;21.21;25.57;101683.66;4956666;28;20046;-79
2022/05/26 08:33:22;;;;;;;6.20;0.82;;;;;;;22.59;23.31;101686.56;4957434;28;20623;-81
2022/05/26 08:43:01;;;;;;;2.88;0.20;;;;;;;18.97;29.17;101704.06;4941994;28;20410;-79
2022/05/26 08:45:32;;;;;;;2.40;0.15;;;;;;;21.83;25.79;101693.31;4953779;28;20114;-78
2022/05/26 08:48:00;;;;;;;5.85;0.88;;;;;;;23.15;24.15;101692.88;4966830;28;20046;-82
2022/05/26 08:50:33;;;;;;;2.42;0.20;;;;;;;23.56;22.71;101693.97;4986157;28;20035;-78
2022/05/26 08:53:30;;;;;;;3.67;0.95;;;;;;;22.41;24.98;101692.50;4951941;28;20051;-77
2022/05/26 08:55:56;;;;;;;2.20;0.43;;;;;;;20.37;28.00;101697.56;4978305;28;20039;-78
2022/05/26 08:58:27;;;;;;;3.90;0.40;;;;;;;18.89;29.39;101708.00;4963132;28;20046;-81
2022/05/26 09:00:57;;;;;;;0.50;0.10;;;;;;;17.86;30.68;101705.34;4978844;28;20042;-80
2022/05/26 09:03:27;;;;;;;0.85;0.10;;;;;;;17.91;31.05;101715.66;4964335;28;20129;-78
2022/05/26 09:06:02;;;;;;;1.17;0.30;;;;;;;16.61;33.52;101720.03;4978689;28;20104;-81
2022/05/26 09:14:32;;;;;;;3.42;0.20;;;;;;;15.59;35.92;101732.13;4984443;28;20050;-80
2022/05/26 09:17:08;;;;;;;2.05;0.30;;;;;;;16.05;35.01;101722.94;4969329;28;20559;-77
2022/05/26 09:19:55;;;;;;;3.25;0.10;;;;;;;17.33;33.60;101722.41;4936684;28;20062;-78
2022/05/26 09:23:22;;;;;;;2.88;0.13;;;;;;;17.76;32.54;101726.19;4971222;28;20208;-80
2022/05/26 09:25:53;;;;;;;;;;;;;;;16.90;33.73;101727.38;4990599;28;20094;-77
2022/05/26 09:28:48;;;;;;;2.45;0.15;;;;;;;17.03;33.92;101726.63;4969277;28;20130;-79
2022/05/26 09:31:27;;;;;;;2.33;0.10;;;;;;;16.49;35.08;101735.63;4962788;28;20054;-76
2022/05/26 09:34:16;;;;;;;6.90;0.30;;;;;;;15.90;35.01;101728.00;4977784;28;20058;-79
2022/05/26 09:36:51;;;;;;;3.05;0.40;;;;;;;17.16;35.05;101742.69;4946677;28;20043;-78
2022/05/26 09:39:26;;;;;;;5.57;0.10;;;;;;;16.72;34.69;101743.22;4962469;28;20055;-79
2022/05/26 09:41:56;;;;;;;4.82;0.17;;;;;;;17.25;34.03;101736.06;4952395;28;20078;-78
2022/05/26 09:44:29;;;;;;;3.80;0.10;;;;;;;18.38;32.55;101747.28;4955586;28;20035;-77
2022/05/26 10:02:25;;;;;;;2.80;0.20;;;;;;;17.15;35.32;101762.09;4982846;28;20061;-77
2022/05/26 10:05:13;;;;;;;5.03;0.60;;;;;;;16.33;36.74;101768.09;4972915;28;20042;-79
2022/05/26 10:08:18;;;;;;;4.07;0.30;;;;;;;18.08;34.38;101757.84;4940808;28;20057;-79
2022/05/26 10:10:59;;;;;;;4.45;0.28;;;;;;;18.74;32.10;101761.88;4960826;28;20069;-81
2022/05/26 10:13:28;;;;;;;6.47;0.20;;;;;;;18.48;33.01;101771.41;4962140;28;20141;-79
2022/05/26 10:16:51;;;;;;;3.75;0.60;;;;;;;18.80;31.58;101777.41;4969053;28;20794;-79
2022/05/26 10:19:41;;;;;;;2.45;0.20;;;;;;;17.85;33.34;101772.41;4911231;29;20056;-79
2022/05/26 10:22:19;;;;;;;1.13;0.10;;;;;;;18.04;32.86;101782.75;4921254;28;20069;-79
2022/05/26 10:32:36;;;;;;;2.22;0.35;;;;;;;17.74;32.61;101774.75;4940758;28;20085;-79
2022/05/26 10:35:16;;;;;;;5.65;0.30;;;;;;;17.29;32.66;101779.00;4952589;28;20504;-76
2022/05/26 10:38:11;;;;;;;3.92;0.50;;;;;;;16.69;34.76;101775.06;4970571;28;20057;-77
2022/05/26 10:48:18;;;;;;;4.00;0.40;;;;;;;16.95;35.41;101775.50;4879040;29;20044;-77
2022/05/26 10:50:56;;;;;;;6.07;0.15;;;;;;;18.12;33.27;101779.66;4919774;28;20090;-81
2022/05/26 10:53:36;;;;;;;2.05;0.13;;;;;;;18.19;32.38;101778.44;4968092;28;20048;-79
2022/05/26 10:56:10;;;;;;;1.92;0.35;;;;;;;18.26;31.55;101774.47;4988988;28;20377;-77
2022/05/26 10:59:26;;;;;;;2.05;0.10;;;;;;;16.72;32.85;101772.25;4928022;28;20677;-78
2022/05/26 11:02:24;;;;;;;2.70;0.13;;;;;;;17.40;32.89;101784.53;4958540;28;20043;-76
2022/05/26 11:05:18;;;;;;;4.43;0.30;;;;;;;17.64;32.47;101779.72;4925644;28;20231;-79
2022/05/26 11:08:28;;;;;;;3.35;0.10;;;;;;;16.39;33.87;101778.31;4960730;28;20108;-77
2022/05/26 11:12:01;;;;;;;1.27;0.40;;;;;;;16.52;33.68;101786.47;4973232;28;20051;-77
2022/05/26 11:18:01;;;;;;;;;;;;;;;18.16;31.44;101771.50;4976830;28;20075;-77
2022/05/26 11:20:53;;;;;;;2.83;0.32;;;;;;;17.67;31.45;101782.22;4965586;28;19962;-78
2022/05/26 11:23:23;;;;;;;2.13;0.20;;;;;;;16.35;33.11;101784.72;4966838;28;20146;-79
2022/05/26 11:26:25;;;;;;;4.45;0.30;;;;;;;17.85;32.75;101788.25;4962400;28;20007;-74
2022/05/26 11:29:24;;;;;;;1.35;0.17;;;;;;;17.91;30.91;101777.31;4927605;28;20287;-78
2022/05/26 11:38:48;;;;;;;2.13;0.25;;;;;;;17.74;31.46;101765.06;4951344;28;20058;-76
2022/05/26 11:44:41;;;;;;;1.60;0.17;;;;;;;17.29;32.59;101768.41;4968156;28;20060;-78
2022/05/26 11:47:44;;;;;;;5.00;0.65;;;;;;;18.32;31.45;101763.53;4976502;28;20545;-77
2022/05/26 11:51:42;;;;;;;4.22;0.20;;;;;;;17.85;31.55;101759.19;4967928;28;20049;-78
2022/05/26 11:54:31;;;;;;;3.83;0.40;;;;;;;16.61;32.83;101756.97;4946629;28;20042;-77
2022/05/26 11:56:57;;;;;;;2.05;0.10;;;;;;;16.30;34.59;101762.97;4951688;28;20027;-77
2022/05/26 11:59:42;;;;;;;8.60;0.20;;;;;;;15.67;35.42;101768.66;4969053;28;20019;-79
2022/05/26 12:06:43;;;;;;;3.35;0.20;;;;;;;17.52;32.61;101778.63;4967352;28;20057;-81
2022/05/26 12:09:44;;;;;;;5.45;0.30;;;;;;;17.71;32.78;101761.72;4890440;28;20063;-76
2022/05/26 12:12:24;;;;;;;0.80;0.10;;;;;;;17.00;33.44;101765.56;4931162;28;20055;-77
2022/05/26 12:15:09;;;;;;;4.57;0.22;;;;;;;17.22;33.52;101763.50;4952342;28;20058;-77
2022/05/26 12:17:45;;;;;;;1.73;0.10;;;;;;;18.36;32.13;101757.09;4952849;28;20047;-79
2022/05/26 12:20:14;;;;;;;1.17;0.10;;;;;;;18.40;31.63;101758.63;4964002;28;20045;-78
2022/05/26 12:22:51;;;;;;;1.92;0.30;;;;;;;19.34;32.30;101755.56;4950516;28;20596;-75
2022/05/26 12:25:35;;;;;;;4.75;0.20;;;;;;;17.72;33.27;101745.78;4968491;28;20053;-76
2022/05/26 12:28:10;;;;;;;3.35;0.70;;;;;;;17.00;34.54;101741.78;4970637;28;20054;-76
2022/05/26 12:30:49;;;;;;;0.95;0.10;;;;;;;16.26;36.23;101750.84;4957824;28;20308;-77
2022/05/26 12:37:20;;;;;;;5.32;0.40;;;;;;;17.22;35.21;101752.94;4969213;28;20097;-78
2022/05/26 12:40:36;;;;;;;5.38;0.25;;;;;;;16.89;34.94;101749.44;4982756;28;20046;-78
2022/05/26 12:44:17;;;;;;;2.55;0.40;;;;;;;17.02;35.77;101755.75;4904020;28;20075;-79
2022/05/26 12:47:36;;;;;;;4.57;0.50;;;;;;;15.93;37.04;101753.34;4978287;28;20162;-75
2022/05/26 12:50:16;;;;;;;5.07;0.30;;;;;;;15.88;37.41;101758.84;4961786;28;20530;-77
2022/05/26 12:52:52;;;;;;;5.40;0.75;;;;;;;16.75;35.85;101756.28;4977191;28;20058;-78
2022/05/26 12:55:45;;;;;;;4.70;0.60;;;;;;;17.14;34.82;101759.56;4975713;28;20129;-79
2022/05/26 12:58:28;;;;;;;3.67;0.52;;;;;;;16.33;36.43;101757.56;4962014;28;20070;-81
2022/05/26 13:01:39;;;;;;;6.60;0.30;;;;;;;15.96;37.27;101759.34;4933316;29;20055;-78
2022/05/26 13:04:36;;;;;;;6.00;0.52;;;;;;;15.73;37.72;101751.72;4965876;28;20027;-76
2022/05/26 13:08:00;;;;;;;3.50;0.43;;;;;;;15.57;38.74;101768.25;4982913;28;20034;-80
2022/05/26 13:10:50;;;;;;;3.47;0.50;;;;;;;15.12;39.00;101766.75;4972364;28;20031;-78
2022/05/26 13:13:29;;;;;;;;;;;;;;;14.46;40.38;101758.28;4952960;28;20749;-78
2022/05/26 13:16:31;;;;;;;3.03;0.32;;;;;;;15.06;39.49;101766.16;4948949;28;19933;-78
2022/05/26 13:19:11;;;;;;;3.03;0.20;;;;;;;15.79;38.52;101751.38;4947494;28;20613;-79
2022/05/26 13:21:38;;;;;;;4.03;0.43;;;;;;;16.37;37.64;101748.53;4968312;28;20035;-79
2022/05/26 13:24:17;;;;;;;3.63;0.30;;;;;;;16.56;36.88;101752.88;4950445;28;20744;-79
2022/05/26 13:26:44;;;;;;;3.38;0.40;;;;;;;16.92;35.52;101741.38;4941605;28;20039;-78
2022/05/26 13:29:11;;;;;;;3.45;0.65;;;;;;;16.26;36.47;101736.81;4943352;28;20058;-79
2022/05/26 13:34:28;;;;;;;5.53;0.65;;;;;;;15.75;38.08;101749.81;4973252;28;20391;-77
2022/05/26 13:36:55;;;;;;;6.43;0.40;;;;;;;16.18;37.95;101755.69;4947592;28;20118;-79
2022/05/26 13:39:25;;;;;;;3.50;0.32;;;;;;;16.15;37.49;101747.91;4965628;28;20671;-77
2022/05/26 13:41:53;;;;;;;9.93;0.75;;;;;;;16.63;37.08;101749.00;4971562;28;20035;-79
2022/05/26 13:44:37;;;;;;;4.40;0.40;;;;;;;16.31;36.93;101751.50;4959974;28;20086;-79
2022/05/26 13:47:07;;;;;;;4.95;0.50;;;;;;;16.14;37.54;101746.22;4938032;28;21047;-78
2022/05/26 13:49:39;;;;;;;2.80;0.50;;;;;;;15.68;37.86;101753.69;4969902;28;20065;-77
2022/05/26 13:52:23;;;;;;;;;;;;;;;15.31;38.61;101747.53;4958353;28;20592;-78
2022/05/26 13:54:58;;;;;;;7.07;0.57;;;;;;;14.53;40.38;101749.19;4974586;28;19973;-77
2022/05/26 13:57:29;;;;;;;5.03;0.47;;;;;;;14.96;39.82;101755.19;4959253;28;20134;-78
2022/05/26 14:00:01;;;;;;;5.07;0.20;;;;;;;14.46;39.86;101753.00;4963416;28;20045;-77
2022/05/26 14:02:48;;;;;;;7.88;0.20;;;;;;;15.45;39.50;101745.09;4973423;28;20754;-78
2022/05/26 14:05:13;;;;;;;1.85;0.15;;;;;;;16.03;37.60;101752.00;4949238;28;20085;-78
2022/05/26 14:07:46;;;;;;;3.20;0.20;;;;;;;16.11;37.65;101749.84;4953903;28;20047;-78
2022/05/26 14:10:15;;;;;;;4.15;0.40;;;;;;;16.50;37.09;101737.34;4953869;28;20049;-78
2022/05/26 14:12:41;;;;;;;4.90;0.20;;;;;;;16.25;37.85;101733.34;4959684;28;20051;-78
2022/05/26 14:15:08;;;;;;;3.53;0.20;;;;;;;16.95;36.35;101738.53;4940958;28;20089;-78
2022/05/26 14:17:40;;;;;;;1.63;0.17;;;;;;;17.31;35.86;101735.69;4942598;28;20042;-76
2022/05/26 14:20:24;;;;;;;6.18;0.20;;;;;;;16.79;36.08;101730.59;4948809;28;20046;-75
2022/05/26 14:22:50;;;;;;;3.33;0.50;;;;;;;16.98;35.38;101727.84;4964002;28;20051;-77
2022/05/26 14:25:23;;;;;;;2.83;0.30;;;;;;;16.49;36.21;101731.25;4945347;28;20049;-77
2022/05/26 14:27:50;;;;;;;3.17;0.40;;;;;;;16.45;36.48;101739.41;4963015;28;20065;-78
2022/05/26 14:30:51;;;;;;;8.82;0.85;;;;;;;16.28;37.64;101738.44;4943275;28;20027;-77
2022/05/26 14:33:25;;;;;;;7.72;0.95;;;;;;;15.40;38.81;101731.28;4937945;28;20038;-78
2022/05/26 14:35:51;;;;;;;1.35;0.40;;;;;;;16.06;38.06;101720.19;4944026;28;20030;-78
2022/05/26 14:38:18;;;;;;;6.07;0.40;;;;;;;16.32;37.88;101733.88;4944016;28;20102;-79
2022/05/26 14:40:44;;;;;;;3.40;0.35;;;;;;;16.86;36.90;101728.47;4937232;28;20145;-78
2022/05/26 14:43:15;;;;;;;1.58;0.52;;;;;;;16.59;37.14;101732.44;4970273;28;20050;-79
2022/05/26 14:45:41;;;;;;;3.60;0.25;;;;;;;16.93;36.98;101728.06;4951038;28;20505;-78
2022/05/26 14:48:07;;;;;;;8.07;0.57;;;;;;;16.31;37.70;101733.03;4943102;28;20045;-79
2022/05/26 14:50:34;;;;;;;2.65;0.30;;;;;;;16.41;37.33;101736.03;4961326;28;20035;-78
2022/05/26 14:53:06;;;;;;;3.72;0.35;;;;;;;15.71;38.70;101743.00;4957203;28;20043;-78
2022/05/26 14:55:36;;;;;;;5.45;0.30;;;;;;;15.98;38.79;101739.03;4957810;28;20050;-80
2022/05/26 14:58:09;;;;;;;2.65;0.63;;;;;;;15.97;38.20;101742.59;4941356;28;20070;-77
2022/05/26 15:00:43;;;;;;;8.18;0.50;;;;;;;15.24;39.00;101753.97;4969791;28;20046;-79
2022/05/26 15:03:09;;;;;;;5.13;0.30;;;;;;;15.17;39.58;101748.97;4953293;28;20043;-79
2022/05/26 15:05:35;;;;;;;6.72;0.35;;;;;;;15.07;39.54;101741.56;4961000;28;20097;-79
2022/05/26 15:08:01;;;;;;;5.85;0.38;;;;;;;14.83;40.69;101747.00;4950852;28;21588;-82
2022/05/26 15:10:26;;;;;;;4.43;0.20;;;;;;;14.84;39.87;101747.88;4970768;28;20042;-81
2022/05/26 15:12:52;;;;;;;4.70;0.20;;;;;;;14.79;40.12;101737.53;4960869;28;20045;-78
2022/05/26 15:15:19;;;;;;;4.03;0.43;;;;;;;15.00;40.07;101735.72;4946559;28;20046;-81
2022/05/26 15:17:45;;;;;;;1.63;0.47;;;;;;;15.28;39.95;101735.34;4961369;28;20044;-78
2022/05/26 15:20:15;;;;;;;5.38;0.40;;;;;;;15.14;39.82;101738.56;4974560;28;20118;-78
2022/05/26 15:22:41;;;;;;;4.40;0.70;;;;;;;14.97;39.96;101736.72;4959466;28;20053;-78
2022/05/26 15:25:09;;;;;;;3.30;0.20;;;;;;;14.73;40.29;101733.38;4946091;28;20043;-79
2022/05/26 15:27:37;;;;;;;4.70;0.50;;;;;;;14.74;41.34;101740.34;4930927;28;20097;-79
2022/05/26 15:30:06;;;;;;;2.40;0.43;;;;;;;14.32;42.14;101740.38;4958535;28;20089;-76
2022/05/26 15:32:43;;;;;;;9.25;1.08;;;;;;;14.12;42.71;101742.09;4957546;28;20049;-80
2022/05/26 15:35:14;;;;;;;8.63;0.73;;;;;;;14.08;42.91;101739.66;4937321;28;20121;-79
2022/05/26 15:37:42;;;;;;;6.93;0.40;;;;;;;14.39;42.55;101743.63;4961951;28;20055;-79
2022/05/26 15:40:17;;;;;;;8.73;0.45;;;;;;;14.38;43.15;101739.28;4974427;28;20504;-78
2022/05/26 15:42:47;;;;;;;4.82;0.50;;;;;;;13.50;44.51;101734.91;4957130;28;20635;-78
2022/05/26 15:45:14;;;;;;;2.78;0.30;;;;;;;13.89;44.41;101739.53;4941055;28;20546;-78
2022/05/26 15:47:40;;;;;;;6.82;0.98;;;;;;;14.48;43.23;101743.28;4965792;28;20054;-77
2022/05/26 15:50:14;;;;;;;1.67;0.30;;;;;;;14.73;42.85;101743.91;4961198;28;20071;-78
2022/05/26 15:52:39;;;;;;;2.10;0.45;;;;;;;13.93;44.37;101746.38;4948682;28;20039;-77
2022/05/26 15:55:05;;;;;;;6.65;0.63;;;;;;;14.24;43.86;101748.63;4963471;28;20492;-78
2022/05/26 15:57:40;;;;;;;7.43;0.70;;;;;;;14.32;44.62;101741.28;4965515;28;20114;-78
2022/05/26 16:00:09;;;;;;;4.45;0.30;;;;;;;14.65;44.09;101743.38;4957661;28;20030;-79
2022/05/26 16:02:36;;;;;;;5.50;0.22;;;;;;;14.30;44.09;101723.81;4954909;28;20490;-78
2022/05/26 16:05:02;;;;;;;4.43;0.35;;;;;;;14.62;43.30;101722.47;4957736;28;20151;-78
2022/05/26 16:07:27;;;;;;;1.85;0.70;;;;;;;14.77;43.11;101721.81;4969451;28;20047;-78
2022/05/26 16:09:53;;;;;;;3.30;0.30;;;;;;;14.71;42.77;101716.81;4954144;28;20039;-80
2022/05/26 16:12:19;;;;;;;4.45;0.80;;;;;;;14.68;43.25;101723.97;4939275;28;20070;-80
2022/05/26 16:14:45;;;;;;;6.03;0.30;;;;;;;14.10;44.37;101722.06;4956654;28;20089;-76
2022/05/26 16:17:11;;;;;;;6.30;0.47;;;;;;;13.78;46.03;101728.59;4946812;28;20078;-79
2022/05/26 16:19:37;;;;;;;1.60;0.17;;;;;;;13.42;46.44;101710.72;4957117;28;20039;-81
2022/05/26 16:22:03;;;;;;;3.35;0.52;;;;;;;13.44;47.11;101717.63;4960064;28;20210;-78
2022/05/26 16:24:33;;;;;;;2.88;0.47;;;;;;;13.43;47.64;101715.03;4957606;28;20035;-77
2022/05/26 16:27:02;;;;;;;1.67;0.60;;;;;;;13.01;49.73;101724.50;4963190;28;20070;-76
2022/05/26 16:29:27;;;;;;;2.17;0.45;;;;;;;12.45;52.35;101737.84;4956751;28;20101;-79
2022/05/26 16:31:53;;;;;;;4.75;0.60;;;;;;;12.61;52.15;101725.91;4953197;28;20730;-75
2022/05/26 16:34:18;;;;;;;4.82;0.45;;;;;;;12.67;52.94;101724.84;4964800;28;20046;-76
2022/05/26 16:36:53;;;;;;;10.75;1.17;;;;;;;12.35;52.61;101716.31;4980321;28;20035;-76
2022/05/26 16:39:22;;;;;;;2.50;0.65;;;;;;;12.37;54.16;101721.50;4953405;28;20043;-76
2022/05/26 16:41:48;;;;;;;7.28;1.35;;;;;;;12.31;53.21;101716.47;4978600;28;20114;-76
2022/05/26 16:44:15;;;;;;;4.50;0.50;;;;;;;12.17;53.97;101717.78;4945881;28;20055;-76
2022/05/26 16:46:41;;;;;;;7.15;1.40;;;;;;;12.32;52.63;101705.94;4979138;28;20023;-76
2022/05/26 16:49:07;;;;;;;3.00;0.70;;;;;;;12.61;51.30;101696.19;4949657;28;20039;-76
2022/05/26 16:51:45;;;;;;;3.03;0.70;;;;;;;12.03;52.15;101696.44;4949668;28;20063;-74
2022/05/26 16:54:23;;;;;;;6.40;0.77;;;;;;;12.83;50.72;101704.19;4966946;28;20047;-75
2022/05/26 16:56:49;;;;;;;2.10;0.88;;;;;;;13.20;49.15;101692.31;4978351;28;20094;-75
2022/05/26 16:59:15;;;;;;;2.47;0.63;;;;;;;12.94;49.39;101686.28;4958506;28;20092;-77
2022/05/26 17:01:41;;;;;;;6.35;0.68;;;;;;;13.11;49.47;101691.72;4955314;28;20109;-76
2022/05/26 17:04:08;;;;;;;4.82;0.75;;;;;;;13.33;49.05;101701.44;4923483;28;20840;-77
2022/05/26 17:06:33;;;;;;;5.30;0.70;;;;;;;13.70;48.05;101686.88;4954008;28;20034;-77
2022/05/26 17:09:01;;;;;;;6.95;1.15;;;;;;;13.67;48.51;101687.88;4960145;28;20199;-76
2022/05/26 17:11:26;;;;;;;3.30;0.90;;;;;;;13.63;47.82;101685.41;4971786;28;20042;-77
2022/05/26 17:22:05;;;;;;;1.90;0.57;;;;;;;13.71;46.87;101662.31;4970641;28;20157;-77
2022/05/26 17:24:31;;;;;;;7.60;0.77;;;;;;;14.06;46.42;101657.38;4974187;28;20034;-76
2022/05/26 17:26:58;;;;;;;2.78;0.32;;;;;;;13.73;46.35;101652.59;4958772;28;20043;-75
2022/05/26 17:29:25;;;;;;;5.82;0.70;;;;;;;12.35;46.99;101657.78;4974074;28;20031;-79
2022/05/26 17:31:52;;;;;;;2.47;0.47;;;;;;;13.33;45.70;101662.03;4941968;28;20042;-78
2022/05/26 17:34:18;;;;;;;3.55;0.73;;;;;;;13.27;45.24;101652.66;4958076;28;20062;-77
2022/05/26 17:36:48;;;;;;;2.75;0.50;;;;;;;13.28;44.94;101648.25;4946485;28;20059;-77
2022/05/26 17:39:20;;;;;;;8.20;0.95;;;;;;;13.13;45.05;101654.09;4970580;28;20405;-76
2022/05/26 17:41:46;;;;;;;;;;;;;;;13.63;43.50;101648.63;4954645;28;20041;-76
2022/05/26 17:44:18;;;;;;;3.83;0.40;;;;;;;13.41;44.45;101643.38;4967180;28;20517;-76
2022/05/26 17:46:44;;;;;;;5.25;0.20;;;;;;;13.02;45.62;101639.59;4972000;28;20031;-78
2022/05/26 17:49:12;;;;;;;4.05;0.47;;;;;;;12.95;45.49;101638.13;4959972;28;20053;-76
2022/05/26 17:51:41;;;;;;;2.20;0.52;;;;;;;13.83;44.32;101627.66;4966318;28;20035;-76
2022/05/26 17:54:14;;;;;;;4.72;0.38;;;;;;;13.61;44.67;101632.94;4923396;28;20050;-78
2022/05/26 17:56:40;;;;;;;5.00;0.25;;;;;;;13.66;44.86;101624.88;4973669;28;20046;-78
2022/05/26 17:59:06;;;;;;;1.75;0.40;;;;;;;14.01;44.19;101619.91;4956997;28;20035;-77
2022/05/26 18:01:33;;;;;;;2.95;0.60;;;;;;;13.99;44.23;101616.50;4949402;28;20624;-76
2022/05/26 18:03:59;;;;;;;5.97;0.40;;;;;;;14.16;43.83;101616.63;4971208;28;20062;-77
2022/05/26 18:06:26;;;;;;;4.38;0.50;;;;;;;14.21;43.71;101622.56;4963825;28;20053;-76
2022/05/26 18:08:52;;;;;;;6.53;1.25;;;;;;;12.34;47.64;101607.13;4945969;28;20051;-76
2022/05/26 18:11:21;;;;;;;7.97;0.80;;;;;;;12.58;48.24;101621.13;4951220;28;20019;-76
2022/05/26 18:14:20;;;;;;;3.70;0.40;;;;;;;12.68;48.19;101613.75;4944966;28;20063;-78
2022/05/26 18:16:46;;;;;;;4.20;0.85;;;;;;;13.08;47.34;101610.50;4933786;28;20050;-78
2022/05/26 18:19:16;;;;;;;5.40;0.98;;;;;;;12.48;49.59;101614.47;4950519;28;20050;-77
2022/05/26 18:22:29;;;;;;;5.45;1.10;;;;;;;11.91;51.06;101618.22;4925615;28;20667;-78
2022/05/26 18:24:56;;;;;;;8.05;0.90;;;;;;;12.09;50.39;101609.75;4949308;28;20204;-78
2022/05/26 18:27:22;;;;;;;2.83;1.25;;;;;;;12.59;50.07;101601.84;4935799;28;20624;-77
2022/05/26 18:30:08;;;;;;;5.03;0.93;;;;;;;12.31;50.53;101590.63;4931398;28;20050;-77
2022/05/26 18:32:36;;;;;;;4.18;0.95;;;;;;;12.16;50.57;101586.81;4943771;28;20066;-78
2022/05/26 18:38:26;;;;;;;3.83;1.05;;;;;;;12.62;49.44;101585.97;4954154;28;20084;-79
2022/05/26 18:40:54;;;;;;;4.97;1.25;;;;;;;12.51;50.04;101564.53;4954846;28;20342;-76
2022/05/26 18:47:16;;;;;;;5.28;1.00;;;;;;;11.48;53.86;101567.25;4971024;28;20379;-77
2022/05/26 18:50:29;;;;;;;5.45;1.65;;;;;;;11.98;52.95;101562.97;4976742;28;21128;-77
2022/05/26 18:52:55;;;;;;;5.95;1.20;;;;;;;12.24;52.79;101561.16;4953191;28;20117;-78
2022/05/26 18:55:46;;;;;;;12.57;2.38;;;;;;;11.66;55.38;101570.13;4954573;28;20472;-76